createdAt,value
2022-12-09T04:30:05.558Z,18.95
2022-12-09T04:32:33.792Z,18.10
2022-12-09T04:35:01.506Z,19.02
2022-12-09T04:37:28.874Z,17.63
2022-12-09T04:39:56.354Z,18.65
2022-12-09T04:42:23.792Z,19.00
2022-12-09T04:44:50.985Z,18.00
2022-12-09T04:47:18.284Z,18.95
2022-12-09T04:49:45.932Z,18.77
2022-12-09T04:52:13.123Z,18.55
2022-12-09T04:54:40.384Z,17.73
2022-12-09T04:57:07.848Z,18.27
2022-12-09T04:59:35.519Z,19.98
2022-12-09T05:02:03.014Z,17.90
2022-12-09T05:04:30.606Z,18.08
2022-12-09T05:06:58.113Z,19.02
2022-12-09T05:09:25.877Z,18.40
2022-12-09T05:11:53.666Z,17.67
2022-12-09T05:14:20.971Z,17.05
2022-12-09T05:16:48.326Z,19.15
2022-12-09T05:19:16.220Z,18.27
2022-12-09T05:21:44.109Z,17.17
2022-12-09T05:24:11.796Z,16.75
2022-12-09T05:26:38.990Z,18.15
2022-12-09T05:29:06.496Z,18.05
2022-12-09T05:31:34.126Z,18.80
2022-12-09T05:34:01.646Z,18.92
2022-12-09T05:36:29.692Z,18.27
2022-12-09T05:38:57.278Z,17.65
2022-12-09T05:41:25.085Z,17.50
2022-12-09T05:43:52.649Z,18.90
2022-12-09T05:46:20.057Z,17.83
2022-12-09T05:48:47.648Z,17.65
2022-12-09T05:51:14.959Z,17.38
2022-12-09T05:53:42.264Z,16.88
2022-12-09T05:56:09.920Z,17.13
2022-12-09T05:58:37.468Z,17.58
2022-12-09T06:01:04.942Z,18.73
2022-12-09T06:03:32.611Z,17.80
2022-12-09T06:06:00.747Z,18.13
2022-12-09T06:08:28.354Z,17.98
2022-12-09T06:10:56.035Z,18.15
2022-12-09T06:13:23.535Z,18.10
2022-12-09T06:15:51.236Z,20.08
2022-12-09T06:18:18.689Z,19.63
2022-12-09T06:20:46.110Z,18.67
2022-12-09T06:23:13.655Z,18.88
2022-12-09T06:25:41.104Z,20.65
2022-12-09T06:28:08.741Z,19.65
2022-12-09T06:30:36.126Z,20.80
2022-12-09T06:33:12.995Z,20.05
2022-12-09T06:35:50.854Z,21.15
2022-12-09T06:38:18.533Z,20.33
2022-12-09T06:40:45.943Z,20.08
2022-12-09T06:43:13.372Z,20.35
2022-12-09T06:45:40.684Z,21.13
2022-12-09T06:48:07.883Z,21.60
2022-12-09T06:50:35.736Z,20.58
2022-12-09T06:53:03.601Z,20.75
2022-12-09T06:55:31.104Z,20.20
2022-12-09T06:57:58.645Z,20.45
2022-12-09T07:00:26.103Z,22.20
2022-12-09T07:02:54.495Z,19.60
2022-12-09T07:05:22.394Z,23.35
2022-12-09T07:07:49.954Z,24.45
2022-12-09T07:10:17.707Z,22.50
2022-12-09T07:12:45.230Z,21.52
2022-12-09T07:15:13.397Z,21.48
2022-12-09T07:17:41.389Z,21.48
2022-12-09T07:20:09.261Z,21.10
2022-12-09T07:22:37.079Z,24.35
2022-12-09T07:25:04.769Z,23.20
2022-12-09T07:27:32.737Z,21.58
2022-12-09T07:30:00.497Z,24.77
2022-12-09T07:32:28.191Z,24.77
2022-12-09T07:34:55.626Z,23.70
2022-12-09T07:37:23.268Z,25.63
2022-12-09T07:39:50.840Z,24.05
2022-12-09T07:42:18.611Z,24.67
2022-12-09T07:44:53.415Z,24.13
2022-12-09T07:47:21.286Z,25.40
2022-12-09T07:49:49.144Z,23.08
2022-12-09T07:52:16.921Z,20.23
2022-12-09T07:54:44.183Z,26.10
2022-12-09T07:57:11.485Z,22.05
2022-12-09T07:59:39.108Z,22.08
2022-12-09T08:02:06.985Z,21.65
2022-12-09T08:04:34.456Z,23.30
2022-12-09T08:07:02.530Z,25.83
2022-12-09T08:09:30.255Z,26.48
2022-12-09T08:11:57.937Z,26.00
2022-12-09T08:14:25.868Z,24.23
2022-12-09T08:16:53.376Z,28.02
2022-12-09T08:19:21.448Z,24.67
2022-12-09T08:21:54.313Z,26.27
2022-12-09T08:24:22.187Z,24.80
2022-12-09T08:26:50.045Z,25.15
2022-12-09T08:29:17.746Z,25.88
2022-12-09T08:31:45.705Z,28.00
2022-12-09T08:34:13.494Z,25.20
2022-12-09T08:36:41.621Z,27.95
2022-12-09T08:39:09.357Z,27.52
2022-12-09T08:41:38.097Z,27.27
2022-12-09T08:44:06.407Z,25.35
2022-12-09T08:46:33.998Z,24.95
2022-12-09T08:49:04.532Z,29.45
2022-12-09T08:51:32.569Z,30.52
2022-12-09T08:54:00.432Z,25.60
2022-12-09T08:56:27.933Z,28.08
2022-12-09T08:58:55.727Z,27.90
2022-12-09T09:01:23.375Z,25.85
2022-12-09T09:03:50.877Z,27.58
2022-12-09T09:06:18.552Z,28.77
2022-12-09T09:08:46.759Z,28.63
2022-12-09T09:11:14.433Z,28.33
2022-12-09T09:13:42.199Z,30.05
2022-12-09T09:16:09.643Z,29.65
2022-12-09T09:18:37.667Z,29.85
2022-12-09T09:21:05.023Z,28.05
2022-12-09T09:23:32.649Z,32.95
2022-12-09T09:26:00.009Z,29.77
2022-12-09T09:28:30.952Z,32.58
2022-12-09T09:30:58.962Z,28.20
2022-12-09T09:33:26.462Z,31.15
2022-12-09T09:35:54.206Z,31.95
2022-12-09T09:38:21.365Z,32.17
2022-12-09T09:40:48.755Z,31.10
2022-12-09T09:43:16.252Z,30.73
2022-12-09T09:45:43.818Z,31.95
2022-12-09T09:48:11.138Z,32.75
2022-12-09T09:50:38.746Z,30.55
2022-12-09T09:53:06.123Z,31.60
2022-12-09T09:55:33.878Z,31.60
2022-12-09T09:58:01.499Z,31.30
2022-12-09T10:00:29.005Z,30.88
2022-12-09T10:02:57.025Z,27.73
2022-12-09T10:05:25.069Z,32.17
2022-12-09T10:07:53.608Z,28.23
2022-12-09T10:10:21.826Z,31.77
2022-12-09T10:12:49.619Z,30.23
2022-12-09T10:15:18.080Z,30.88
2022-12-09T10:17:47.726Z,30.92
2022-12-09T10:20:15.831Z,27.98
2022-12-09T10:22:43.871Z,30.17
2022-12-09T10:25:11.861Z,33.78
2022-12-09T10:27:39.756Z,30.75
2022-12-09T10:30:07.888Z,34.88
2022-12-09T10:32:37.614Z,32.53
2022-12-09T10:35:06.085Z,34.45
2022-12-09T10:37:33.896Z,31.63
2022-12-09T10:40:01.561Z,31.42
2022-12-09T10:42:47.695Z,31.90
2022-12-09T10:45:15.112Z,33.60
2022-12-09T10:47:42.964Z,35.33
2022-12-09T10:50:11.270Z,34.65
2022-12-09T10:52:39.182Z,30.25
2022-12-09T10:55:06.715Z,33.30
2022-12-09T10:57:34.047Z,31.70
2022-12-09T11:00:01.856Z,33.60
2022-12-09T11:02:29.432Z,33.40
2022-12-09T11:04:57.998Z,38.60
2022-12-09T11:07:26.138Z,38.67
2022-12-09T11:09:53.836Z,36.75
2022-12-09T11:12:21.985Z,34.58
2022-12-09T11:14:49.806Z,36.47
2022-12-09T11:17:17.673Z,38.15
2022-12-09T11:19:45.429Z,38.55
2022-12-09T11:22:13.112Z,36.88
2022-12-09T11:24:40.877Z,35.88
2022-12-09T11:27:08.396Z,36.00
2022-12-09T11:29:35.717Z,35.78
2022-12-09T11:32:03.167Z,36.85
2022-12-09T11:34:30.862Z,39.33
2022-12-09T11:36:58.571Z,39.15
2022-12-09T11:39:25.823Z,38.15
2022-12-09T11:42:16.425Z,34.10
2022-12-09T11:44:44.544Z,37.53
2022-12-09T11:47:11.851Z,33.50
2022-12-09T11:49:39.374Z,39.00
2022-12-09T11:52:06.562Z,38.95
2022-12-09T11:54:33.855Z,39.75
2022-12-09T11:57:01.027Z,36.50
2022-12-09T11:59:28.237Z,35.97
2022-12-09T12:01:55.452Z,33.70
2022-12-09T12:04:22.809Z,37.53
2022-12-09T12:06:50.029Z,38.17
2022-12-09T12:09:17.321Z,31.63
2022-12-09T12:11:44.538Z,38.78
2022-12-09T12:14:12.366Z,37.00
2022-12-09T12:16:40.121Z,38.40
2022-12-09T12:19:07.412Z,38.22
2022-12-09T12:21:34.654Z,36.35
2022-12-09T12:24:02.029Z,37.83
2022-12-09T12:26:29.283Z,38.45
2022-12-09T12:29:00.126Z,32.30
2022-12-09T12:31:28.644Z,35.45
2022-12-09T12:36:43.064Z,37.78
2022-12-09T12:39:10.368Z,39.55
2022-12-09T12:41:37.642Z,41.58
2022-12-09T12:44:23.715Z,39.53
2022-12-09T12:46:51.016Z,41.45
2022-12-09T12:49:18.234Z,40.78
2022-12-09T12:51:48.484Z,39.58
2022-12-09T12:54:19.811Z,39.90
2022-12-09T12:56:47.062Z,40.38
2022-12-09T12:59:14.460Z,40.30
2022-12-09T13:01:41.675Z,40.10
2022-12-09T13:04:09.287Z,41.42
2022-12-09T13:06:36.521Z,38.00
2022-12-09T13:09:03.762Z,36.60
2022-12-09T13:11:31.056Z,38.45
2022-12-09T13:13:58.308Z,39.20
2022-12-09T13:16:27.545Z,35.83
2022-12-09T13:18:54.902Z,32.55
2022-12-09T13:21:22.082Z,32.22
2022-12-09T13:23:49.283Z,36.20
2022-12-09T13:26:16.540Z,31.20
2022-12-09T13:28:43.772Z,34.22
2022-12-09T13:31:10.950Z,30.55
2022-12-09T13:33:38.255Z,31.60
2022-12-09T13:36:06.632Z,33.83
2022-12-09T13:38:34.210Z,31.23
2022-12-09T13:41:01.433Z,32.78
2022-12-09T13:43:28.716Z,32.35
2022-12-09T13:45:56.024Z,33.75
2022-12-09T13:48:23.343Z,32.47
2022-12-09T13:50:59.830Z,32.40
2022-12-09T13:53:27.204Z,33.13
2022-12-09T13:55:54.601Z,30.70
2022-12-09T13:58:21.919Z,31.58
2022-12-09T14:00:49.187Z,32.90
2022-12-09T14:03:16.445Z,32.92
2022-12-09T14:05:43.643Z,31.38
2022-12-09T14:08:11.082Z,29.45
2022-12-09T14:10:38.429Z,33.45
2022-12-09T14:13:05.714Z,31.98
2022-12-09T14:15:32.923Z,32.70
2022-12-09T14:18:00.256Z,32.53
2022-12-09T14:20:28.234Z,33.13
2022-12-09T14:22:55.501Z,29.83
2022-12-09T14:25:22.672Z,29.45
2022-12-09T14:27:50.233Z,28.30
2022-12-09T14:30:17.414Z,25.88
2022-12-09T14:32:44.650Z,31.98
2022-12-09T14:35:11.819Z,28.80
2022-12-09T14:37:40.087Z,28.83
2022-12-09T14:40:07.428Z,30.27
2022-12-09T14:42:35.212Z,29.30
2022-12-09T14:45:02.382Z,30.23
2022-12-09T14:47:29.921Z,30.35
2022-12-09T14:49:57.134Z,29.20
2022-12-09T14:52:24.298Z,27.85
2022-12-09T14:54:51.617Z,27.00
2022-12-09T14:57:18.860Z,28.67
2022-12-09T14:59:46.122Z,29.80
2022-12-09T15:02:13.327Z,28.10
2022-12-09T15:04:40.848Z,28.65
2022-12-09T15:07:08.111Z,29.33
2022-12-09T15:09:35.449Z,31.38
2022-12-09T15:12:02.677Z,32.38
2022-12-09T15:14:29.961Z,30.65
2022-12-09T15:16:57.393Z,29.75
2022-12-09T15:19:58.000Z,29.83
2022-12-09T15:22:11.845Z,27.90
2022-12-09T15:24:50.252Z,26.73
2022-12-09T15:27:18.053Z,27.58
2022-12-09T15:29:45.307Z,27.52
2022-12-09T15:32:12.542Z,27.15
2022-12-09T15:34:40.072Z,23.30
2022-12-09T15:37:07.322Z,27.20
2022-12-09T15:39:34.504Z,22.65
2022-12-09T15:42:07.954Z,23.65
2022-12-09T15:44:35.180Z,22.83
2022-12-09T15:47:05.552Z,22.40
2022-12-09T15:49:36.164Z,23.17
2022-12-09T15:52:03.385Z,25.27
2022-12-09T15:54:30.671Z,24.15
2022-12-09T15:56:58.045Z,21.33
2022-12-09T15:59:25.281Z,21.15
2022-12-09T16:01:52.600Z,21.75
2022-12-09T16:04:20.022Z,23.33
2022-12-09T16:06:47.208Z,23.08
2022-12-09T16:09:14.443Z,21.65
2022-12-09T16:11:41.666Z,22.80
2022-12-09T16:14:08.906Z,22.83
2022-12-09T16:16:36.268Z,24.27
2022-12-09T16:19:03.516Z,23.20
2022-12-09T16:21:30.805Z,22.83
2022-12-09T16:23:58.027Z,22.60
2022-12-09T16:26:25.267Z,25.55
2022-12-09T16:28:52.499Z,24.23
2022-12-09T16:31:19.812Z,23.45
2022-12-09T16:33:47.111Z,22.88
2022-12-09T16:36:15.496Z,22.48
2022-12-09T16:38:44.339Z,24.77
2022-12-09T16:41:11.539Z,23.92
2022-12-09T16:43:38.742Z,24.98
2022-12-09T16:46:06.000Z,25.48
2022-12-09T16:48:33.267Z,27.10
2022-12-09T16:51:00.974Z,25.20
2022-12-09T16:53:28.204Z,24.33
2022-12-09T16:55:55.440Z,25.77
2022-12-09T16:58:22.855Z,26.10
2022-12-09T17:00:50.185Z,24.65
2022-12-09T17:03:17.506Z,23.17
2022-12-09T17:05:47.994Z,24.85
2022-12-09T17:08:15.559Z,26.73
2022-12-09T17:10:42.909Z,27.55
2022-12-09T17:13:10.184Z,30.17
2022-12-09T17:15:37.418Z,28.48
2022-12-09T17:18:04.740Z,28.85
2022-12-09T17:20:31.898Z,28.42
2022-12-09T17:22:59.072Z,29.95
2022-12-09T17:25:29.686Z,30.10
2022-12-09T17:27:56.942Z,26.52
2022-12-09T17:30:24.139Z,30.70
2022-12-09T17:32:51.405Z,26.10
2022-12-09T17:35:19.069Z,26.75
2022-12-09T17:37:46.371Z,25.58
2022-12-09T17:40:13.698Z,25.77
2022-12-09T17:42:40.948Z,25.48
2022-12-09T17:45:08.427Z,28.00
2022-12-09T17:47:36.021Z,25.73
2022-12-09T17:50:03.355Z,25.55
2022-12-09T17:52:30.584Z,24.70
2022-12-09T17:54:58.985Z,23.23
2022-12-09T17:57:26.645Z,25.75
2022-12-09T17:59:53.809Z,25.08
2022-12-09T18:02:21.198Z,23.02
2022-12-09T18:04:48.494Z,26.80
2022-12-09T18:07:15.775Z,24.38
2022-12-09T18:09:43.121Z,25.48
2022-12-09T18:12:10.424Z,23.73
2022-12-09T18:14:37.754Z,23.90
2022-12-09T18:17:06.415Z,25.25
2022-12-09T18:19:35.317Z,25.52
2022-12-09T18:22:02.629Z,25.27
2022-12-09T18:24:29.992Z,27.17
2022-12-09T18:26:57.339Z,27.48
2022-12-09T18:29:24.597Z,23.85
2022-12-09T18:31:56.917Z,25.00
2022-12-09T18:34:24.344Z,24.35
2022-12-09T18:36:51.883Z,24.83
2022-12-09T18:39:19.143Z,24.90
2022-12-09T18:41:46.429Z,23.88
2022-12-09T18:44:13.776Z,23.85
2022-12-09T18:46:41.029Z,24.50
2022-12-09T18:49:08.377Z,23.85
2022-12-09T18:51:35.661Z,23.38
2022-12-09T18:54:03.017Z,25.40
2022-12-09T18:56:30.334Z,22.92
2022-12-09T18:59:07.158Z,23.15
2022-12-09T19:01:39.202Z,24.83
2022-12-09T19:04:08.740Z,24.20
2022-12-09T19:06:35.989Z,22.85
2022-12-09T19:09:03.505Z,24.50
2022-12-09T19:11:30.732Z,24.77
2022-12-09T19:13:58.065Z,25.08
2022-12-09T19:16:25.242Z,22.35
2022-12-09T19:18:53.682Z,22.42
2022-12-09T19:21:20.866Z,24.40
2022-12-09T19:23:48.127Z,23.85
2022-12-09T19:26:15.375Z,21.60
2022-12-09T19:28:42.536Z,21.70
2022-12-09T19:31:09.935Z,21.95
2022-12-09T19:33:37.155Z,22.05
2022-12-09T19:36:04.409Z,23.38
2022-12-09T19:38:32.292Z,21.75
2022-12-09T19:40:59.587Z,24.27
2022-12-09T19:43:26.811Z,24.15
2022-12-09T19:45:54.164Z,22.58
2022-12-09T19:48:21.401Z,23.15
2022-12-09T19:50:48.645Z,22.98
2022-12-09T19:53:16.479Z,21.35
2022-12-09T19:55:45.832Z,23.02
2022-12-09T19:58:13.069Z,22.25
2022-12-09T20:00:41.741Z,20.98
2022-12-09T20:03:09.113Z,20.85
2022-12-09T20:05:36.371Z,22.90
2022-12-09T20:08:03.616Z,23.83
2022-12-09T20:10:30.898Z,21.70
2022-12-09T20:12:58.111Z,21.88
2022-12-09T20:15:25.371Z,22.85
2022-12-09T20:17:52.691Z,21.75
2022-12-09T20:20:19.986Z,23.08
2022-12-09T20:22:47.180Z,22.17
2022-12-09T20:25:14.394Z,23.15
2022-12-09T20:27:41.641Z,22.35
2022-12-09T20:30:09.073Z,24.05
2022-12-09T20:32:36.555Z,23.27
2022-12-09T20:35:08.229Z,22.88
2022-12-09T20:37:36.635Z,22.83
2022-12-09T20:40:03.867Z,19.70
2022-12-09T20:42:31.029Z,21.73
2022-12-09T20:44:58.358Z,21.38
2022-12-09T20:47:25.523Z,22.65
2022-12-09T20:49:52.734Z,21.42
2022-12-09T20:52:19.957Z,19.45
2022-12-09T20:54:47.196Z,19.88
2022-12-09T20:57:14.563Z,20.33
2022-12-09T20:59:41.777Z,21.38
2022-12-09T21:02:13.542Z,20.83
2022-12-09T21:04:41.012Z,21.25
2022-12-09T21:07:08.182Z,21.38
2022-12-09T21:09:35.430Z,20.70
2022-12-09T21:12:02.674Z,21.58
2022-12-09T21:14:33.161Z,20.33
2022-12-09T21:17:00.796Z,20.42
2022-12-09T21:19:30.427Z,20.15
2022-12-09T21:21:57.704Z,20.77
2022-12-09T21:24:25.544Z,18.20
2022-12-09T21:26:53.452Z,18.23
2022-12-09T21:29:20.644Z,20.60
2022-12-09T21:31:54.332Z,18.73
2022-12-09T21:34:21.636Z,18.60
2022-12-09T21:36:49.304Z,19.25
2022-12-09T21:39:17.213Z,18.27
2022-12-09T21:41:44.377Z,18.40
2022-12-09T21:44:11.812Z,18.95
2022-12-09T21:46:39.831Z,18.65
2022-12-09T21:49:07.214Z,19.30
2022-12-09T21:51:34.524Z,18.27
2022-12-09T21:54:01.742Z,19.98
2022-12-09T21:56:30.521Z,17.95
2022-12-09T21:58:57.836Z,17.63
2022-12-09T22:01:26.726Z,17.27
2022-12-09T22:03:54.123Z,17.65
2022-12-09T22:06:21.372Z,19.92
2022-12-09T22:08:48.576Z,17.20
2022-12-09T22:11:15.833Z,18.20
2022-12-09T22:13:42.980Z,17.15
2022-12-09T22:16:10.410Z,16.80
2022-12-09T22:18:37.642Z,17.42
2022-12-09T22:23:52.151Z,16.63
2022-12-09T22:26:19.320Z,17.17
2022-12-09T22:28:46.538Z,16.35
2022-12-09T22:31:13.809Z,16.95
2022-12-09T22:33:41.063Z,15.68
2022-12-09T22:36:08.250Z,16.55
2022-12-09T22:38:35.700Z,15.98
2022-12-09T22:41:02.849Z,15.50
2022-12-09T22:43:33.712Z,17.73
2022-12-09T22:46:05.157Z,15.65
2022-12-09T22:48:32.507Z,14.82
2022-12-09T22:50:59.681Z,15.60
2022-12-09T22:53:26.888Z,15.32
2022-12-09T22:55:54.080Z,15.13
2022-12-09T22:58:21.380Z,13.93
2022-12-09T23:00:49.062Z,16.08
2022-12-09T23:03:16.364Z,14.35
2022-12-09T23:05:43.559Z,14.18
2022-12-09T23:08:10.813Z,14.50
2022-12-09T23:10:38.272Z,15.07
2022-12-09T23:13:05.500Z,15.18
2022-12-09T23:15:32.665Z,14.52
2022-12-09T23:18:00.123Z,14.48
2022-12-09T23:20:27.314Z,14.43
2022-12-09T23:22:54.565Z,13.68
2022-12-09T23:25:24.369Z,14.43
2022-12-09T23:27:51.592Z,13.68
2022-12-09T23:30:18.784Z,14.00
2022-12-09T23:32:46.115Z,13.98
2022-12-09T23:35:13.273Z,14.70
2022-12-09T23:37:40.547Z,13.38
2022-12-09T23:40:08.033Z,15.20
2022-12-09T23:42:35.418Z,14.73
2022-12-09T23:45:02.636Z,14.18
2022-12-09T23:47:29.858Z,14.52
2022-12-09T23:49:57.130Z,14.52
2022-12-09T23:52:24.394Z,13.02
2022-12-09T23:54:51.807Z,14.93
2022-12-09T23:57:19.244Z,13.77
2022-12-09T23:59:46.500Z,13.77
